This is the latest recevied weather packets stored in our database for station/object KB2AHZ. If no packets are shown the sender has not sent any weather packets the latest 10 day(s).
| Time | Temp. | Humidity | Pressure | Rain* | Wind** | Luminosity | Snow |
|---|---|---|---|---|---|---|---|
| 1778168426 | 12.78° C | 99% | 1011.7 hPa | 0 mm | - | 56 W/m² | - |
| 1778168123 | 12.78° C | 99% | 1011.7 hPa | 0 mm | - | 45 W/m² | - |
| 1778167819 | 12.78° C | 99% | 1011.7 hPa | 0 mm | - | 61 W/m² | - |
| 1778167515 | 12.78° C | 99% | 1011.6 hPa | 0.51 mm | - | 61 W/m² | - |
| 1778167211 | 12.78° C | 99% | 1011.6 hPa | 0 mm | - | 60 W/m² | - |
| 1778166908 | 12.78° C | 99% | 1011.9 hPa | 1.78 mm | - | 41 W/m² | - |
| 1778166605 | 12.78° C | 99% | 1011.8 hPa | 4.32 mm | - | 36 W/m² | - |
| 1778166302 | 12.78° C | 99% | 1011.4 hPa | 3.05 mm | - | 61 W/m² | - |
| 1778165998 | 12.22° C | 99% | 1011.3 hPa | 0.51 mm | - | 47 W/m² | - |
| 1778165693 | 12.78° C | 99% | 1011.5 hPa | 0 mm | - | 51 W/m² | - |
| 1778165391 | 12.78° C | 99% | 1011.6 hPa | 0 mm | - | 41 W/m² | - |
| 1778165087 | 12.78° C | 99% | 1011.9 hPa | 0 mm | - | 29 W/m² | - |
| 1778164784 | 12.78° C | 99% | 1011.8 hPa | 0.51 mm | - | 40 W/m² | - |
| 1778164482 | 12.78° C | 99% | 1011.8 hPa | 0.51 mm | - | 34 W/m² | - |
| 1778164179 | 12.78° C | 99% | 1011.7 hPa | 0 mm | - | 36 W/m² | - |
| 1778163874 | 12.78° C | 99% | 1011.4 hPa | 0 mm | - | 53 W/m² | - |
| 1778163572 | 12.78° C | 99% | 1010.6 hPa | 0 mm | - | 93 W/m² | - |
| 1778163267 | 12.78° C | 99% | 1010.6 hPa | 0 mm | - | 123 W/m² | - |
| 1778162965 | 12.78° C | 99% | 1010.9 hPa | 0 mm | - | 87 W/m² | - |
| 1778162661 | 12.78° C | 99% | 1011.2 hPa | 0 mm | - | 71 W/m² | - |
| 1778162359 | 12.78° C | 99% | 1011 hPa | 0 mm | - | 66 W/m² | - |
| 1778162055 | 12.78° C | 99% | 1011.4 hPa | 0 mm | - | 42 W/m² | - |
| 1778161753 | 12.78° C | 99% | 1011.5 hPa | 1.27 mm | - | 43 W/m² | - |
| 1778161449 | 12.78° C | 99% | 1012 hPa | 3.05 mm | - | 44 W/m² | - |
| 1778161145 | 12.78° C | 99% | 1011.9 hPa | 2.29 mm | - | 84 W/m² | - |
* Rain latest hour (hover to see other rain measurements)
** Current wind speed in m/s (hover to see current wind gust speed)